createdAt,value
2023-03-24T00:01:53.896Z,8.40
2023-03-24T00:04:25.466Z,9.00
2023-03-24T00:06:54.804Z,10.00
2023-03-24T00:09:24.919Z,9.80
2023-03-24T00:11:55.110Z,8.80
2023-03-24T00:14:26.092Z,10.00
2023-03-24T00:16:59.100Z,9.10
2023-03-24T00:19:28.342Z,9.20
2023-03-24T00:21:58.299Z,9.70
2023-03-24T00:24:27.686Z,9.00
2023-03-24T00:26:58.347Z,8.70
2023-03-24T00:29:28.758Z,8.80
2023-03-24T00:31:58.206Z,9.50
2023-03-24T00:34:28.824Z,9.30
2023-03-24T00:37:00.015Z,9.60
2023-03-24T00:39:29.467Z,9.40
2023-03-24T00:41:59.175Z,9.50
2023-03-24T00:44:28.785Z,8.30
2023-03-24T00:46:58.164Z,7.90
2023-03-24T00:49:45.475Z,8.50
2023-03-24T00:52:21.029Z,7.90
2023-03-24T00:54:55.675Z,8.00
2023-03-24T00:57:27.575Z,8.10
2023-03-24T00:59:58.155Z,7.30
2023-03-24T01:02:29.325Z,9.40
2023-03-24T01:05:02.804Z,7.40
2023-03-24T01:07:34.000Z,6.70
2023-03-24T01:10:05.412Z,7.30
2023-03-24T01:12:39.842Z,7.90
2023-03-24T01:15:16.417Z,7.40
2023-03-24T01:17:49.286Z,6.40
2023-03-24T01:20:18.950Z,7.20
2023-03-24T01:22:49.331Z,7.70
2023-03-24T01:25:22.054Z,6.40
2023-03-24T01:27:54.049Z,7.30
2023-03-24T01:32:57.713Z,6.70
2023-03-24T01:35:30.013Z,6.50
2023-03-24T01:40:34.303Z,6.80
2023-03-24T01:43:28.077Z,7.40
2023-03-24T01:46:06.726Z,7.10
2023-03-24T01:48:53.274Z,7.30
2023-03-24T01:51:42.751Z,7.20
2023-03-24T01:54:28.054Z,7.20
2023-03-24T01:57:12.767Z,7.40
2023-03-24T01:59:48.992Z,8.30
2023-03-24T02:02:43.170Z,7.30
2023-03-24T02:05:15.791Z,7.20
2023-03-24T02:07:56.408Z,8.10
2023-03-24T02:10:26.586Z,6.80
2023-03-24T02:12:56.743Z,7.50
2023-03-24T02:15:29.972Z,7.10
2023-03-24T02:18:30.350Z,7.10
2023-03-24T02:21:33.334Z,7.40
2023-03-24T02:24:33.070Z,7.10
2023-03-24T02:27:31.573Z,7.60
2023-03-24T02:30:11.281Z,6.60
2023-03-24T02:33:25.530Z,7.30
2023-03-24T02:36:25.370Z,6.40
2023-03-24T02:39:23.889Z,6.80
2023-03-24T02:42:31.453Z,7.30
2023-03-24T02:45:26.716Z,5.50
2023-03-24T02:47:59.431Z,5.30
2023-03-24T02:50:44.547Z,5.70
2023-03-24T02:54:04.332Z,5.80
2023-03-24T02:56:45.827Z,5.80
2023-03-24T02:59:51.690Z,6.50
2023-03-24T03:02:57.558Z,5.40
2023-03-24T03:05:38.140Z,6.20
2023-03-24T03:08:13.070Z,6.40
2023-03-24T03:10:46.832Z,5.20
2023-03-24T03:13:26.505Z,6.20
2023-03-24T03:16:04.254Z,5.60
2023-03-24T03:18:50.669Z,6.10
2023-03-24T03:21:25.802Z,5.00
2023-03-24T03:24:00.791Z,6.00
2023-03-24T03:26:33.191Z,5.50
2023-03-24T03:29:12.409Z,6.00
2023-03-24T03:32:00.224Z,6.60
2023-03-24T03:34:48.085Z,5.60
2023-03-24T03:37:29.690Z,7.20
2023-03-24T03:40:12.748Z,6.30
2023-03-24T03:42:47.730Z,6.00
2023-03-24T03:45:18.180Z,6.60
2023-03-24T03:47:49.253Z,5.80
2023-03-24T03:50:18.889Z,5.40
2023-03-24T03:52:49.352Z,5.80
2023-03-24T03:55:19.411Z,5.90
2023-03-24T03:57:48.818Z,5.30
2023-03-24T04:00:39.396Z,5.40
2023-03-24T04:03:41.562Z,5.10
2023-03-24T04:06:19.950Z,5.40
2023-03-24T04:09:30.584Z,6.30
2023-03-24T04:12:34.938Z,5.60
2023-03-24T04:15:56.267Z,6.10
2023-03-24T04:18:52.881Z,6.00
2023-03-24T04:21:42.840Z,5.10
2023-03-24T04:24:40.829Z,5.60
2023-03-24T04:27:39.690Z,6.10
2023-03-24T04:30:16.595Z,5.90
2023-03-24T04:33:07.697Z,6.50
2023-03-24T04:35:49.849Z,5.60
2023-03-24T04:38:28.404Z,6.00
2023-03-24T04:41:18.514Z,5.80
2023-03-24T04:43:58.671Z,6.20
2023-03-24T04:46:27.990Z,6.50
2023-03-24T04:49:27.843Z,5.90
2023-03-24T04:51:59.492Z,6.10
2023-03-24T04:54:31.034Z,6.20
2023-03-24T04:57:07.641Z,5.30
2023-03-24T04:59:46.725Z,5.40
2023-03-24T05:02:17.269Z,6.00
2023-03-24T05:05:09.043Z,6.30
2023-03-24T05:07:44.907Z,5.90
2023-03-24T05:10:17.252Z,5.70
2023-03-24T05:12:53.225Z,6.60
2023-03-24T05:15:23.481Z,5.90
2023-03-24T05:17:59.132Z,6.20
2023-03-24T05:20:28.933Z,7.60
2023-03-24T05:23:06.709Z,6.60
2023-03-24T05:25:36.809Z,7.10
2023-03-24T05:28:08.001Z,6.70
2023-03-24T05:30:38.063Z,7.30
2023-03-24T05:33:22.994Z,6.20
2023-03-24T05:35:52.601Z,6.40
2023-03-24T05:38:23.003Z,7.20
2023-03-24T05:41:02.649Z,7.10
2023-03-24T05:43:38.171Z,6.10
2023-03-24T05:46:12.303Z,6.40
2023-03-24T05:48:43.772Z,7.10
2023-03-24T05:51:22.644Z,6.80
2023-03-24T05:54:01.586Z,7.90
2023-03-24T05:56:38.605Z,8.10
2023-03-24T05:59:32.854Z,8.70
2023-03-24T06:02:14.127Z,8.40
2023-03-24T06:05:08.831Z,7.90
2023-03-24T06:07:42.842Z,7.70
2023-03-24T06:10:14.930Z,6.70
2023-03-24T06:12:49.580Z,8.60
2023-03-24T06:15:19.899Z,7.50
2023-03-24T06:17:50.653Z,8.50
2023-03-24T06:20:36.447Z,7.40
2023-03-24T06:23:34.522Z,6.90
2023-03-24T06:26:11.914Z,6.90
2023-03-24T06:29:02.899Z,8.00
2023-03-24T06:31:40.385Z,7.30
2023-03-24T06:34:10.026Z,7.50
2023-03-24T06:36:40.552Z,7.60
2023-03-24T06:39:13.576Z,6.70
2023-03-24T06:41:44.834Z,7.40
2023-03-24T06:44:14.857Z,6.60
2023-03-24T06:46:46.619Z,7.50
2023-03-24T06:49:16.140Z,9.10
2023-03-24T06:51:45.368Z,7.90
2023-03-24T06:54:21.293Z,7.70
2023-03-24T06:56:50.725Z,7.80
2023-03-24T06:59:27.385Z,6.90
2023-03-24T07:02:05.350Z,7.60
2023-03-24T07:04:43.275Z,7.30
2023-03-24T07:07:57.041Z,7.30
2023-03-24T07:10:32.859Z,7.10
2023-03-24T07:13:03.898Z,7.40
2023-03-24T07:15:37.037Z,8.00
2023-03-24T07:18:07.216Z,8.10
2023-03-24T07:20:41.976Z,7.00
2023-03-24T07:23:17.687Z,8.00
2023-03-24T07:26:31.895Z,7.40
2023-03-24T07:29:11.503Z,6.90
2023-03-24T07:32:08.245Z,6.40
2023-03-24T07:37:10.108Z,6.50
2023-03-24T07:39:39.229Z,7.30
2023-03-24T07:42:10.460Z,7.40
2023-03-24T07:44:52.534Z,7.10
2023-03-24T07:47:22.811Z,6.70
2023-03-24T07:49:53.031Z,7.40
2023-03-24T07:52:23.802Z,7.30
2023-03-24T07:54:55.092Z,7.70
2023-03-24T07:58:20.893Z,7.80
2023-03-24T08:01:44.587Z,7.30
2023-03-24T08:04:15.008Z,9.10
2023-03-24T08:07:02.029Z,9.00
2023-03-24T08:09:32.520Z,9.10
2023-03-24T08:12:09.934Z,12.40
2023-03-24T08:14:48.225Z,11.30
2023-03-24T08:17:17.394Z,11.20
2023-03-24T08:19:59.119Z,10.90
2023-03-24T08:22:30.700Z,12.00
2023-03-24T08:25:00.259Z,11.10
2023-03-24T08:27:29.691Z,10.80
2023-03-24T08:29:59.520Z,9.90
2023-03-24T08:32:28.687Z,9.00
2023-03-24T08:34:58.778Z,8.50
2023-03-24T08:37:27.911Z,8.20
2023-03-24T08:40:01.163Z,9.10
2023-03-24T08:42:31.508Z,9.90
2023-03-24T08:45:02.449Z,10.30
2023-03-24T08:47:32.359Z,10.30
2023-03-24T08:50:02.758Z,12.20
2023-03-24T08:52:32.438Z,12.90
2023-03-24T08:55:02.078Z,11.10
2023-03-24T08:57:32.280Z,11.80
2023-03-24T09:00:01.460Z,11.90
2023-03-24T09:02:35.319Z,11.00
2023-03-24T09:05:07.690Z,14.00
2023-03-24T09:07:38.245Z,10.10
2023-03-24T09:10:10.617Z,8.90
2023-03-24T09:15:13.746Z,8.70
2023-03-24T09:17:43.695Z,7.50
2023-03-24T09:20:16.257Z,7.40
2023-03-24T09:23:10.188Z,6.50
2023-03-24T09:25:39.624Z,6.60
2023-03-24T09:28:09.880Z,6.10
2023-03-24T09:30:39.078Z,6.60
2023-03-24T09:33:08.463Z,5.90
2023-03-24T09:36:13.589Z,5.90
2023-03-24T09:38:46.785Z,3.90
2023-03-24T09:41:21.373Z,3.00
2023-03-24T09:44:09.444Z,4.70
2023-03-24T09:46:44.154Z,4.60
2023-03-24T09:49:19.260Z,4.10
2023-03-24T09:51:48.292Z,4.00
2023-03-24T09:55:07.577Z,4.30
2023-03-24T09:58:04.718Z,3.60
2023-03-24T10:01:05.955Z,4.30
2023-03-24T10:03:37.648Z,3.80
2023-03-24T10:06:35.285Z,3.80
2023-03-24T10:09:25.045Z,3.40
2023-03-24T10:12:05.800Z,3.40
2023-03-24T10:14:46.943Z,2.90
2023-03-24T10:17:27.780Z,3.20
2023-03-24T10:20:01.955Z,4.10
2023-03-24T10:22:56.937Z,3.30
2023-03-24T10:26:11.594Z,5.40
2023-03-24T10:29:17.562Z,4.00
2023-03-24T10:31:52.768Z,4.20
2023-03-24T10:34:26.937Z,4.70
2023-03-24T10:37:00.406Z,4.70
2023-03-24T10:39:44.238Z,4.00
2023-03-24T10:42:22.578Z,4.70
2023-03-24T10:44:53.261Z,5.10
2023-03-24T10:48:01.318Z,4.70
2023-03-24T10:50:49.851Z,4.10
2023-03-24T10:56:41.729Z,4.40
2023-03-24T10:59:41.173Z,4.30
2023-03-24T11:02:11.602Z,4.40
2023-03-24T11:04:45.294Z,3.60
2023-03-24T11:07:18.136Z,3.70
2023-03-24T11:10:13.894Z,3.10
2023-03-24T11:13:05.803Z,3.50
2023-03-24T11:15:39.686Z,3.80
2023-03-24T11:18:12.056Z,3.30
2023-03-24T11:20:53.524Z,3.20
2023-03-24T11:23:39.266Z,3.70
2023-03-24T11:26:28.964Z,3.30
2023-03-24T11:29:02.069Z,2.50
2023-03-24T11:31:35.648Z,3.40
2023-03-24T11:34:26.000Z,3.40
2023-03-24T11:36:59.619Z,3.30
2023-03-24T11:39:34.825Z,3.30
2023-03-24T11:42:12.437Z,3.70
2023-03-24T11:44:51.886Z,3.50
2023-03-24T11:47:35.896Z,3.60
2023-03-24T11:50:11.269Z,3.10
2023-03-24T11:52:50.074Z,2.90
2023-03-24T11:55:29.602Z,3.10
2023-03-24T11:58:15.053Z,3.10
2023-03-24T12:01:00.308Z,2.70
2023-03-24T12:04:06.510Z,3.70
2023-03-24T12:06:51.705Z,3.40
2023-03-24T12:09:49.739Z,3.50
2023-03-24T12:12:42.183Z,3.70
2023-03-24T12:15:42.366Z,4.10
2023-03-24T12:18:41.789Z,3.40
2023-03-24T12:21:29.437Z,3.40
2023-03-24T12:24:02.954Z,3.60
2023-03-24T12:26:33.784Z,3.60
2023-03-24T12:29:08.723Z,3.70
2023-03-24T12:32:08.033Z,3.20
2023-03-24T12:34:56.279Z,3.40
2023-03-24T12:38:08.058Z,3.80
2023-03-24T12:40:55.562Z,4.10
2023-03-24T12:44:25.848Z,3.80
2023-03-24T12:47:36.483Z,3.60
2023-03-24T12:50:41.058Z,3.40
2023-03-24T12:53:36.971Z,4.10
2023-03-24T12:56:16.567Z,4.10
2023-03-24T12:58:49.711Z,3.70
2023-03-24T13:01:45.280Z,3.40
2023-03-24T13:04:21.769Z,3.30
2023-03-24T13:07:15.610Z,3.10
2023-03-24T13:10:07.430Z,3.40
2023-03-24T13:12:44.548Z,3.20
2023-03-24T13:15:18.879Z,3.20
2023-03-24T13:18:08.963Z,3.30
2023-03-24T13:20:49.925Z,3.00
2023-03-24T13:23:43.728Z,3.60
2023-03-24T13:26:15.707Z,2.70
2023-03-24T13:29:09.173Z,3.10
2023-03-24T13:32:10.961Z,3.00
2023-03-24T13:34:49.437Z,2.90
2023-03-24T13:37:26.009Z,3.00
2023-03-24T13:40:01.076Z,2.40
2023-03-24T13:42:58.946Z,2.80
2023-03-24T13:45:43.001Z,2.60
2023-03-24T13:48:12.638Z,3.10
2023-03-24T13:50:48.121Z,3.50
2023-03-24T13:53:17.277Z,3.00
2023-03-24T13:55:52.800Z,3.50
2023-03-24T13:58:26.750Z,3.50
2023-03-24T14:01:17.563Z,2.90
2023-03-24T14:07:23.189Z,3.50
2023-03-24T14:10:02.301Z,3.40
2023-03-24T14:12:33.890Z,3.40
2023-03-24T14:15:05.774Z,3.20
2023-03-24T14:17:35.152Z,3.30
2023-03-24T14:20:11.620Z,2.80
2023-03-24T14:22:45.550Z,3.00
2023-03-24T14:25:14.709Z,2.60
2023-03-24T14:27:47.260Z,2.60
2023-03-24T14:30:31.321Z,2.50
2023-03-24T14:33:03.532Z,2.60
2023-03-24T14:35:47.083Z,2.50
2023-03-24T14:38:16.366Z,2.60
2023-03-24T14:40:52.506Z,2.50
2023-03-24T14:43:27.748Z,2.60
2023-03-24T14:46:20.396Z,3.20
2023-03-24T14:49:09.973Z,2.90
2023-03-24T14:51:59.636Z,2.90
2023-03-24T14:54:44.436Z,3.00
2023-03-24T14:57:41.804Z,2.40
2023-03-24T15:00:32.305Z,3.00
2023-03-24T15:03:33.708Z,3.10
2023-03-24T15:06:14.806Z,3.30
2023-03-24T15:08:58.830Z,2.80
2023-03-24T15:11:37.606Z,2.70
2023-03-24T15:14:14.040Z,2.80
2023-03-24T15:16:43.692Z,2.90
2023-03-24T15:19:31.805Z,2.80
2023-03-24T15:22:04.857Z,3.00
2023-03-24T15:24:38.603Z,2.80
2023-03-24T15:27:16.306Z,2.90
2023-03-24T15:29:46.913Z,3.20
2023-03-24T15:32:23.474Z,3.30
2023-03-24T15:34:55.768Z,3.10
2023-03-24T15:37:36.744Z,2.90
2023-03-24T15:40:27.576Z,3.70
2023-03-24T15:42:59.552Z,4.60
2023-03-24T15:45:32.410Z,4.40
2023-03-24T15:48:34.914Z,4.20
2023-03-24T15:51:11.944Z,3.70
2023-03-24T15:53:44.827Z,4.20
2023-03-24T15:56:18.355Z,4.60
2023-03-24T15:59:09.606Z,5.00
2023-03-24T16:01:44.668Z,5.60
2023-03-24T16:04:21.989Z,5.30
2023-03-24T16:06:55.422Z,5.20
2023-03-24T16:09:27.819Z,5.00
2023-03-24T16:11:57.598Z,5.50
2023-03-24T16:14:28.888Z,5.30
2023-03-24T16:17:01.208Z,5.60
2023-03-24T16:19:30.976Z,5.80
2023-03-24T16:22:00.821Z,6.60
2023-03-24T16:24:30.566Z,6.10
2023-03-24T16:27:02.805Z,5.70
2023-03-24T16:29:32.916Z,5.70
2023-03-24T16:32:02.167Z,6.10
2023-03-24T16:34:32.089Z,6.00
2023-03-24T16:37:03.313Z,8.70
2023-03-24T16:39:32.833Z,7.60
2023-03-24T16:42:01.926Z,7.60
2023-03-24T16:44:31.378Z,7.10
2023-03-24T16:47:01.782Z,6.10
2023-03-24T16:49:31.849Z,6.10
2023-03-24T16:52:01.737Z,5.90
2023-03-24T16:54:30.976Z,6.00
2023-03-24T16:57:00.426Z,5.20
2023-03-24T16:59:29.616Z,7.20
2023-03-24T17:02:06.080Z,6.00
2023-03-24T17:04:35.749Z,6.00
2023-03-24T17:07:04.882Z,6.40
2023-03-24T17:09:35.927Z,6.40
2023-03-24T17:12:05.842Z,6.10
2023-03-24T17:14:35.124Z,6.30
2023-03-24T17:17:04.691Z,6.10
2023-03-24T17:19:38.751Z,5.40
2023-03-24T17:22:08.235Z,6.40
2023-03-24T17:24:40.098Z,6.30
2023-03-24T17:27:13.755Z,6.40
2023-03-24T17:29:43.072Z,6.70
2023-03-24T17:32:12.206Z,7.80
2023-03-24T17:34:47.716Z,7.50
2023-03-24T17:37:16.959Z,7.40
2023-03-24T17:39:47.026Z,10.60
2023-03-24T17:42:16.519Z,18.30
2023-03-24T17:44:48.781Z,12.30
2023-03-24T17:47:18.538Z,19.60
2023-03-24T17:49:47.873Z,15.80
2023-03-24T17:52:19.342Z,15.60
2023-03-24T17:54:55.027Z,16.60
2023-03-24T17:57:24.372Z,15.00
2023-03-24T17:59:53.774Z,14.60
2023-03-24T18:02:23.551Z,10.90
2023-03-24T18:04:54.769Z,10.90
2023-03-24T18:07:29.847Z,10.20
2023-03-24T18:09:59.652Z,7.10
2023-03-24T18:12:28.865Z,11.60
2023-03-24T18:14:58.851Z,11.10
2023-03-24T18:17:28.342Z,8.50
2023-03-24T18:19:59.872Z,9.90
2023-03-24T18:24:58.850Z,6.70
2023-03-24T18:27:28.882Z,8.00
2023-03-24T18:29:58.007Z,8.90
2023-03-24T18:32:28.911Z,8.30
2023-03-24T18:35:01.141Z,9.70
2023-03-24T18:37:30.622Z,10.70
2023-03-24T18:40:01.215Z,9.60
2023-03-24T18:42:30.302Z,8.40
2023-03-24T18:44:59.343Z,7.70
2023-03-24T18:47:28.517Z,9.00
2023-03-24T18:49:58.138Z,9.00
2023-03-24T18:52:27.702Z,9.10
2023-03-24T18:54:57.268Z,9.70
2023-03-24T18:57:27.890Z,11.40
2023-03-24T18:59:57.703Z,10.00
2023-03-24T19:02:27.616Z,10.40
2023-03-24T19:04:56.860Z,8.60
2023-03-24T19:07:26.710Z,9.00
2023-03-24T19:09:57.167Z,9.50
2023-03-24T19:12:26.584Z,10.00
2023-03-24T19:14:56.498Z,9.80
2023-03-24T19:17:27.796Z,9.10
2023-03-24T19:19:58.494Z,9.70
2023-03-24T19:22:27.598Z,10.20
2023-03-24T19:24:56.965Z,9.80
2023-03-24T19:27:27.837Z,11.40
2023-03-24T19:29:59.985Z,9.70
2023-03-24T19:32:29.984Z,11.40
2023-03-24T19:34:59.166Z,9.10
2023-03-24T19:37:29.667Z,9.20
2023-03-24T19:40:00.234Z,11.20
2023-03-24T19:42:33.390Z,10.30
2023-03-24T19:45:05.301Z,8.60
2023-03-24T19:47:35.578Z,9.20
2023-03-24T19:50:07.557Z,9.40
2023-03-24T19:52:37.072Z,9.00
2023-03-24T19:55:07.194Z,9.70
2023-03-24T19:57:37.000Z,8.70
2023-03-24T20:00:09.659Z,11.30
2023-03-24T20:02:38.938Z,9.70
2023-03-24T20:05:09.864Z,9.10
2023-03-24T20:07:39.026Z,9.30
2023-03-24T20:10:09.409Z,10.00
2023-03-24T20:12:38.709Z,11.10
2023-03-24T20:15:08.810Z,10.40
2023-03-24T20:17:39.725Z,10.90
2023-03-24T20:22:42.396Z,10.10
2023-03-24T20:25:14.661Z,10.10
2023-03-24T20:27:48.162Z,10.70
2023-03-24T20:30:20.520Z,10.30
2023-03-24T20:32:49.725Z,10.70
2023-03-24T20:35:19.008Z,11.20
2023-03-24T20:37:49.776Z,11.10
2023-03-24T20:40:21.300Z,12.40
2023-03-24T20:42:51.178Z,10.20
2023-03-24T20:45:20.283Z,10.50
2023-03-24T20:47:49.343Z,10.70
2023-03-24T20:50:20.554Z,11.70
2023-03-24T20:52:50.383Z,10.50
2023-03-24T20:55:22.504Z,10.40
2023-03-24T20:57:54.350Z,10.70
2023-03-24T21:00:24.615Z,10.80
2023-03-24T21:03:01.359Z,10.10
2023-03-24T21:05:31.002Z,11.20
2023-03-24T21:08:00.167Z,10.70
2023-03-24T21:10:31.183Z,10.90
2023-03-24T21:13:00.229Z,11.60
2023-03-24T21:15:29.418Z,13.60
2023-03-24T21:17:59.612Z,12.00
2023-03-24T21:20:31.194Z,12.20
2023-03-24T21:23:03.847Z,12.60
2023-03-24T21:25:34.348Z,12.50
2023-03-24T21:28:04.701Z,12.80
2023-03-24T21:30:33.873Z,11.60
2023-03-24T21:33:03.605Z,11.90
2023-03-24T21:35:33.387Z,11.10
2023-03-24T21:38:05.876Z,10.10
2023-03-24T21:40:34.968Z,10.80
2023-03-24T21:43:05.509Z,11.20
2023-03-24T21:45:36.873Z,9.50
2023-03-24T21:48:07.279Z,10.70
2023-03-24T21:50:39.705Z,9.80
2023-03-24T21:53:19.216Z,9.90
2023-03-24T21:55:52.157Z,9.60
2023-03-24T22:00:55.302Z,9.70
2023-03-24T22:03:28.413Z,9.90
2023-03-24T22:05:58.073Z,9.30
2023-03-24T22:08:30.955Z,10.50
2023-03-24T22:11:04.648Z,9.60
2023-03-24T22:13:35.049Z,9.70
2023-03-24T22:16:04.817Z,9.60
2023-03-24T22:18:35.892Z,10.30
2023-03-24T22:21:08.040Z,8.60
2023-03-24T22:23:40.584Z,10.10
2023-03-24T22:28:44.891Z,9.00
2023-03-24T22:31:17.035Z,10.90
2023-03-24T22:33:48.553Z,10.40
2023-03-24T22:36:18.223Z,11.10
2023-03-24T22:38:48.192Z,10.20
2023-03-24T22:41:17.521Z,10.10
2023-03-24T22:43:46.734Z,10.10
2023-03-24T22:46:16.964Z,9.50
2023-03-24T22:48:46.110Z,10.60
2023-03-24T22:51:19.592Z,10.40
2023-03-24T22:53:48.883Z,10.20
2023-03-24T22:56:18.444Z,9.70
2023-03-24T22:58:49.042Z,9.50
2023-03-24T23:01:18.725Z,9.60
2023-03-24T23:03:47.880Z,8.20
2023-03-24T23:06:16.999Z,8.60
2023-03-24T23:08:46.614Z,8.70
2023-03-24T23:11:16.926Z,9.00
2023-03-24T23:13:51.475Z,9.40
2023-03-24T23:16:21.515Z,8.70
2023-03-24T23:18:52.032Z,9.00
2023-03-24T23:21:21.286Z,9.50
2023-03-24T23:23:51.599Z,9.80
2023-03-24T23:26:44.574Z,9.40
2023-03-24T23:29:16.249Z,8.10
2023-03-24T23:31:45.235Z,9.00
2023-03-24T23:34:15.182Z,8.40
2023-03-24T23:36:45.430Z,8.80
2023-03-24T23:39:15.337Z,9.30
2023-03-24T23:41:46.916Z,9.00
2023-03-24T23:44:20.150Z,9.30
2023-03-24T23:46:49.934Z,9.90
2023-03-24T23:49:20.646Z,9.30
2023-03-24T23:51:50.201Z,9.60
2023-03-24T23:54:19.846Z,9.00
2023-03-24T23:56:51.865Z,9.20
